KDBQ/DBQ METAR and TAF weather

Enter ICAO airport designator
Station Type Date Time Source
KDBQ METAR 2019/04/18 09:53 UTC NOAA

KDBQ 180953Z AUTO 28009KT 10SM OVC010 08/06 A2961 RMK AO2 SLP026 T00830056


Station Type Date Time Source
KDBQ Decoded METAR 2019/04/18 09:53 UTC NOAA

DUBUQUE REGIONAL AIRPORT, IA, United States (KDBQ) 42-24N 90-42W 326M
Apr 18, 2019 - 05:53 AM EDT / 2019.04.18 0953 UTC
Wind: from the W (280 degrees) at 10 MPH (9 KT):0
Visibility: 10 mile(s):0
Sky conditions: overcast
Temperature: 46.9 F (8.3 C)
Dew Point: 42.1 F (5.6 C)
Relative Humidity: 83%
Pressure (altimeter): 29.61 in. Hg (1002 hPa)
ob: KDBQ 180953Z AUTO 28009KT 10SM OVC010 08/06 A2961 RMK AO2 SLP026 T00830056
cycle: 10

Station Type Date Time Source
KDBQ TAF 2019/04/18 10:04 UTC NOAA

TAF
AMD KDBQ 181001Z 1810/1906 30015KT P6SM OVC010
FM181100 32013G21KT P6SM OVC010
FM181700 32014G23KT P6SM OVC020
FM182200 34015G24KT P6SM OVC040

Example: see airport list